createdAt,value
2023-03-02T00:01:10.262Z,9.05
2023-03-02T00:03:39.713Z,7.70
2023-03-02T00:06:07.314Z,8.77
2023-03-02T00:08:35.040Z,8.65
2023-03-02T00:11:02.353Z,7.10
2023-03-02T00:13:30.654Z,8.80
2023-03-02T00:15:58.017Z,7.78
2023-03-02T00:18:25.278Z,8.25
2023-03-02T00:20:52.559Z,7.90
2023-03-02T00:23:19.801Z,7.93
2023-03-02T00:25:47.093Z,7.30
2023-03-02T00:28:14.312Z,7.75
2023-03-02T00:30:41.701Z,8.73
2023-03-02T00:33:09.195Z,7.15
2023-03-02T00:35:40.455Z,7.50
2023-03-02T00:38:08.380Z,7.30
2023-03-02T00:40:36.262Z,9.48
2023-03-02T00:43:06.438Z,8.77
2023-03-02T00:45:33.778Z,11.20
2023-03-02T00:48:01.430Z,8.55
2023-03-02T00:50:28.962Z,9.20
2023-03-02T00:52:56.652Z,8.65
2023-03-02T00:55:27.713Z,8.13
2023-03-02T00:57:55.218Z,8.85
2023-03-02T01:00:23.922Z,7.93
2023-03-02T01:02:51.449Z,8.55
2023-03-02T01:05:18.802Z,8.43
2023-03-02T01:07:46.060Z,6.95
2023-03-02T01:10:13.586Z,7.47
2023-03-02T01:12:41.169Z,7.47
2023-03-02T01:15:08.909Z,8.32
2023-03-02T01:17:36.344Z,7.28
2023-03-02T01:20:04.926Z,7.18
2023-03-02T01:22:32.142Z,7.82
2023-03-02T01:24:59.282Z,8.38
2023-03-02T01:27:26.478Z,8.50
2023-03-02T01:29:53.641Z,8.77
2023-03-02T01:32:20.883Z,6.70
2023-03-02T01:34:48.092Z,6.97
2023-03-02T01:37:15.291Z,7.13
2023-03-02T01:39:42.487Z,7.97
2023-03-02T01:42:09.700Z,6.60
2023-03-02T01:44:36.900Z,7.75
2023-03-02T01:47:05.582Z,6.70
2023-03-02T01:49:38.273Z,7.22
2023-03-02T01:52:05.516Z,6.88
2023-03-02T01:54:32.699Z,6.85
2023-03-02T01:57:02.499Z,7.43
2023-03-02T01:59:31.149Z,8.68
2023-03-02T02:01:59.677Z,8.75
2023-03-02T02:04:27.855Z,7.05
2023-03-02T02:07:01.465Z,7.22
2023-03-02T02:09:31.002Z,7.28
2023-03-02T02:11:58.230Z,6.97
2023-03-02T02:14:25.748Z,7.03
2023-03-02T02:16:53.326Z,6.50
2023-03-02T02:19:20.547Z,7.55
2023-03-02T02:21:47.803Z,7.70
2023-03-02T02:24:21.028Z,6.72
2023-03-02T02:29:23.070Z,8.18
2023-03-02T02:32:02.642Z,7.97
2023-03-02T02:34:32.511Z,7.88
2023-03-02T02:37:12.646Z,7.82
2023-03-02T02:39:41.743Z,7.88
2023-03-02T02:42:13.270Z,8.10
2023-03-02T02:44:40.658Z,8.02
2023-03-02T02:47:16.003Z,8.07
2023-03-02T02:49:43.222Z,9.35
2023-03-02T02:52:13.653Z,8.05
2023-03-02T02:54:41.011Z,8.27
2023-03-02T02:57:08.467Z,8.30
2023-03-02T02:59:43.253Z,7.55
2023-03-02T03:02:27.184Z,8.15
2023-03-02T03:05:03.363Z,8.18
2023-03-02T03:07:31.352Z,8.25
2023-03-02T03:10:02.669Z,9.23
2023-03-02T03:12:30.453Z,7.55
2023-03-02T03:14:59.575Z,8.48
2023-03-02T03:17:26.828Z,7.78
2023-03-02T03:19:54.045Z,6.80
2023-03-02T03:22:21.315Z,7.60
2023-03-02T03:24:48.517Z,8.07
2023-03-02T03:27:16.666Z,7.78
2023-03-02T03:29:45.185Z,7.30
2023-03-02T03:32:12.488Z,7.55
2023-03-02T03:34:40.990Z,6.85
2023-03-02T03:37:10.100Z,8.20
2023-03-02T03:39:37.525Z,7.60
2023-03-02T03:42:05.474Z,7.57
2023-03-02T03:44:32.831Z,7.80
2023-03-02T03:47:00.480Z,8.10
2023-03-02T03:49:28.105Z,7.45
2023-03-02T03:51:55.276Z,7.60
2023-03-02T03:54:22.485Z,8.27
2023-03-02T03:56:51.135Z,8.48
2023-03-02T03:59:20.169Z,9.65
2023-03-02T04:01:53.276Z,18.40
2023-03-02T04:04:26.473Z,8.35
2023-03-02T04:09:20.802Z,8.23
2023-03-02T04:11:49.481Z,7.25
2023-03-02T04:14:17.471Z,6.95
2023-03-02T04:16:45.071Z,16.13
2023-03-02T04:19:12.809Z,16.73
2023-03-02T04:21:41.436Z,14.10
2023-03-02T04:24:09.753Z,11.35
2023-03-02T04:26:37.516Z,10.27
2023-03-02T04:29:05.091Z,13.75
2023-03-02T04:31:32.354Z,13.15
2023-03-02T04:33:59.855Z,10.50
2023-03-02T04:36:27.141Z,8.02
2023-03-02T04:38:54.569Z,7.10
2023-03-02T04:41:22.432Z,7.85
2023-03-02T04:43:49.596Z,7.75
2023-03-02T04:46:19.156Z,8.95
2023-03-02T04:48:46.448Z,9.25
2023-03-02T04:51:24.772Z,8.48
2023-03-02T04:53:53.339Z,9.23
2023-03-02T04:56:20.757Z,9.90
2023-03-02T04:58:48.025Z,9.73
2023-03-02T05:01:16.235Z,10.60
2023-03-02T05:03:43.461Z,9.32
2023-03-02T05:06:10.855Z,10.68
2023-03-02T05:08:38.699Z,10.13
2023-03-02T05:11:07.870Z,10.68
2023-03-02T05:13:36.162Z,9.48
2023-03-02T05:16:03.640Z,8.40
2023-03-02T05:18:31.337Z,8.40
2023-03-02T05:20:59.646Z,8.45
2023-03-02T05:23:27.626Z,7.68
2023-03-02T05:25:55.929Z,9.25
2023-03-02T05:28:24.109Z,9.73
2023-03-02T05:30:51.671Z,10.80
2023-03-02T05:33:19.239Z,10.52
2023-03-02T05:35:46.816Z,10.18
2023-03-02T05:38:14.045Z,10.48
2023-03-02T05:40:42.499Z,8.60
2023-03-02T05:43:10.388Z,9.15
2023-03-02T05:45:39.167Z,8.55
2023-03-02T05:48:08.661Z,9.52
2023-03-02T05:50:38.283Z,10.60
2023-03-02T05:53:05.746Z,10.27
2023-03-02T05:55:36.929Z,10.65
2023-03-02T05:58:13.638Z,10.35
2023-03-02T06:00:49.846Z,11.30
2023-03-02T06:03:25.833Z,12.40
2023-03-02T06:05:57.584Z,11.90
2023-03-02T06:08:28.390Z,12.88
2023-03-02T06:10:59.122Z,12.57
2023-03-02T06:13:32.458Z,11.95
2023-03-02T06:16:00.270Z,12.60
2023-03-02T06:18:27.590Z,13.73
2023-03-02T06:20:54.839Z,15.20
2023-03-02T06:23:22.132Z,16.20
2023-03-02T06:25:49.380Z,14.30
2023-03-02T06:28:19.269Z,14.38
2023-03-02T06:30:48.765Z,16.17
2023-03-02T06:33:16.971Z,14.63
2023-03-02T06:35:44.553Z,15.60
2023-03-02T06:38:11.860Z,17.13
2023-03-02T06:40:39.054Z,17.45
2023-03-02T06:43:06.226Z,18.23
2023-03-02T06:45:37.825Z,19.92
2023-03-02T06:48:05.496Z,18.83
2023-03-02T06:50:33.083Z,22.13
2023-03-02T06:53:00.521Z,23.05
2023-03-02T06:55:27.716Z,20.95
2023-03-02T06:57:55.027Z,22.25
2023-03-02T07:00:27.940Z,22.05
2023-03-02T07:02:56.051Z,23.20
2023-03-02T07:05:24.433Z,22.15
2023-03-02T07:07:52.051Z,22.20
2023-03-02T07:10:19.927Z,20.88
2023-03-02T07:12:47.236Z,20.95
2023-03-02T07:15:14.718Z,20.05
2023-03-02T07:17:43.357Z,20.40
2023-03-02T07:20:11.500Z,19.70
2023-03-02T07:22:38.859Z,19.50
2023-03-02T07:25:06.589Z,18.85
2023-03-02T07:27:33.890Z,19.80
2023-03-02T07:30:01.249Z,18.77
2023-03-02T07:32:28.889Z,20.90
2023-03-02T07:34:56.231Z,19.25
2023-03-02T07:37:23.569Z,19.35
2023-03-02T07:39:51.008Z,19.70
2023-03-02T07:42:18.336Z,18.48
2023-03-02T07:44:45.534Z,18.73
2023-03-02T07:47:12.898Z,18.58
2023-03-02T07:49:40.221Z,17.98
2023-03-02T07:52:07.491Z,18.23
2023-03-02T07:54:34.788Z,18.58
2023-03-02T07:57:02.146Z,17.20
2023-03-02T07:59:31.948Z,16.33
2023-03-02T08:02:02.174Z,17.60
2023-03-02T08:04:29.348Z,17.02
2023-03-02T08:06:56.693Z,17.23
2023-03-02T08:09:23.910Z,17.00
2023-03-02T08:11:51.187Z,16.63
2023-03-02T08:14:20.513Z,16.33
2023-03-02T08:16:47.832Z,17.63
2023-03-02T08:19:15.116Z,17.63
2023-03-02T08:21:42.482Z,16.17
2023-03-02T08:24:10.484Z,16.63
2023-03-02T08:26:37.698Z,15.98
2023-03-02T08:29:05.184Z,16.35
2023-03-02T08:31:32.824Z,15.70
2023-03-02T08:34:00.600Z,17.55
2023-03-02T08:36:27.892Z,17.02
2023-03-02T08:38:55.313Z,16.23
2023-03-02T08:41:23.908Z,17.85
2023-03-02T08:43:54.302Z,16.73
2023-03-02T08:46:21.743Z,17.83
2023-03-02T08:48:51.212Z,18.10
2023-03-02T08:51:19.888Z,15.73
2023-03-02T08:53:48.163Z,15.90
2023-03-02T08:56:19.829Z,16.48
2023-03-02T08:58:48.215Z,18.60
2023-03-02T09:01:20.763Z,16.55
2023-03-02T09:03:49.646Z,16.70
2023-03-02T09:06:20.018Z,17.95
2023-03-02T09:08:57.025Z,17.02
2023-03-02T09:11:24.693Z,16.90
2023-03-02T09:13:54.422Z,16.92
2023-03-02T09:16:21.992Z,16.75
2023-03-02T09:18:49.370Z,17.42
2023-03-02T09:21:17.207Z,15.43
2023-03-02T09:23:44.870Z,17.70
2023-03-02T09:26:12.302Z,16.45
2023-03-02T09:28:44.734Z,15.40
2023-03-02T09:34:00.484Z,17.10
2023-03-02T09:36:29.855Z,16.17
2023-03-02T09:38:59.513Z,14.38
2023-03-02T09:41:27.101Z,13.30
2023-03-02T09:47:00.795Z,14.10
2023-03-02T09:49:51.744Z,12.00
2023-03-02T09:52:32.815Z,13.80
2023-03-02T09:55:12.964Z,14.30
2023-03-02T09:57:40.505Z,14.10
2023-03-02T10:00:20.526Z,14.02
2023-03-02T10:03:02.482Z,13.18
2023-03-02T10:05:37.073Z,14.05
2023-03-02T10:08:04.312Z,13.52
2023-03-02T10:10:34.567Z,14.05
2023-03-02T10:13:01.798Z,13.57
2023-03-02T10:15:38.362Z,13.77
2023-03-02T10:18:17.107Z,13.15
2023-03-02T10:21:07.193Z,12.40
2023-03-02T10:23:40.409Z,12.02
2023-03-02T10:28:39.873Z,12.02
2023-03-02T10:31:11.973Z,13.77
2023-03-02T10:33:42.105Z,12.82
2023-03-02T10:36:26.804Z,13.15
2023-03-02T10:38:54.974Z,12.27
2023-03-02T10:41:24.865Z,13.48
2023-03-02T10:43:59.084Z,12.98
2023-03-02T10:46:26.572Z,13.88
2023-03-02T10:48:56.436Z,15.02
2023-03-02T10:51:26.744Z,14.05
2023-03-02T10:54:13.536Z,13.32
2023-03-02T10:56:44.998Z,13.40
2023-03-02T10:59:27.668Z,13.20
2023-03-02T11:02:14.643Z,12.35
2023-03-02T11:04:42.033Z,12.48
2023-03-02T11:07:20.465Z,12.00
2023-03-02T11:10:04.883Z,12.50
2023-03-02T11:12:35.191Z,12.13
2023-03-02T11:15:22.690Z,12.43
2023-03-02T11:17:52.717Z,11.75
2023-03-02T11:20:26.049Z,11.98
2023-03-02T11:23:12.056Z,12.15
2023-03-02T11:25:41.161Z,12.07
2023-03-02T11:28:47.008Z,11.40
2023-03-02T11:31:17.330Z,12.25
2023-03-02T11:34:11.580Z,11.25
2023-03-02T11:36:50.553Z,11.80
2023-03-02T11:39:21.403Z,11.40
2023-03-02T11:41:48.956Z,11.35
2023-03-02T11:44:18.350Z,11.85
2023-03-02T11:46:51.954Z,11.77
2023-03-02T11:49:22.605Z,11.25
2023-03-02T11:51:58.442Z,11.70
2023-03-02T11:54:37.287Z,11.68
2023-03-02T11:57:04.863Z,11.40
2023-03-02T11:59:32.868Z,11.05
2023-03-02T12:02:01.327Z,11.98
2023-03-02T12:04:32.374Z,11.88
2023-03-02T12:07:03.306Z,10.73
2023-03-02T12:09:31.346Z,12.45
2023-03-02T12:12:17.515Z,11.95
2023-03-02T12:14:44.764Z,11.63
2023-03-02T12:17:27.257Z,11.75
2023-03-02T12:19:56.104Z,12.07
2023-03-02T12:22:30.962Z,11.20
2023-03-02T12:25:06.861Z,12.85
2023-03-02T12:27:35.330Z,12.18
2023-03-02T12:30:24.621Z,12.18
2023-03-02T12:33:10.687Z,12.48
2023-03-02T12:35:38.589Z,11.57
2023-03-02T12:38:20.159Z,12.68
2023-03-02T12:41:06.564Z,13.10
2023-03-02T12:43:35.027Z,12.40
2023-03-02T12:46:21.499Z,11.65
2023-03-02T12:49:10.768Z,12.52
2023-03-02T12:51:56.802Z,13.10
2023-03-02T12:54:25.967Z,11.93
2023-03-02T12:57:03.905Z,11.73
2023-03-02T12:59:31.374Z,12.02
2023-03-02T13:02:25.052Z,11.20
2023-03-02T13:04:58.595Z,11.98
2023-03-02T13:07:30.834Z,11.82
2023-03-02T13:10:01.183Z,13.15
2023-03-02T13:12:29.684Z,11.68
2023-03-02T13:14:58.668Z,13.50
2023-03-02T13:17:38.567Z,12.63
2023-03-02T13:20:06.308Z,14.00
2023-03-02T13:22:34.038Z,14.30
2023-03-02T13:25:03.669Z,13.73
2023-03-02T13:28:06.235Z,14.75
2023-03-02T13:30:48.196Z,14.80
2023-03-02T13:33:21.880Z,14.60
2023-03-02T13:35:49.429Z,13.43
2023-03-02T13:38:20.651Z,12.85
2023-03-02T13:40:49.848Z,12.70
2023-03-02T13:43:20.486Z,12.18
2023-03-02T13:45:55.697Z,12.48
2023-03-02T13:48:23.310Z,12.68
2023-03-02T13:51:01.391Z,13.40
2023-03-02T13:53:30.366Z,11.85
2023-03-02T13:56:00.297Z,12.45
2023-03-02T13:58:29.284Z,12.60
2023-03-02T14:00:56.805Z,12.25
2023-03-02T14:03:30.960Z,12.43
2023-03-02T14:06:01.262Z,13.50
2023-03-02T14:08:28.600Z,13.70
2023-03-02T14:10:59.734Z,13.43
2023-03-02T14:13:36.430Z,13.07
2023-03-02T14:16:03.960Z,12.57
2023-03-02T14:18:34.321Z,11.38
2023-03-02T14:21:01.833Z,12.35
2023-03-02T14:23:29.250Z,13.23
2023-03-02T14:25:57.638Z,13.98
2023-03-02T14:28:37.665Z,13.05
2023-03-02T14:31:05.176Z,13.77
2023-03-02T14:33:32.666Z,13.20
2023-03-02T14:35:59.918Z,13.73
2023-03-02T14:38:27.958Z,14.48
2023-03-02T14:40:55.510Z,14.25
2023-03-02T14:43:23.975Z,14.18
2023-03-02T14:45:52.331Z,14.15
2023-03-02T14:48:19.796Z,15.15
2023-03-02T14:50:48.199Z,13.90
2023-03-02T14:53:20.629Z,14.43
2023-03-02T14:55:47.999Z,16.13
2023-03-02T14:58:20.174Z,15.18
2023-03-02T15:00:48.464Z,15.13
2023-03-02T15:03:19.292Z,14.50
2023-03-02T15:06:00.370Z,14.10
2023-03-02T15:08:28.313Z,15.68
2023-03-02T15:10:55.560Z,15.18
2023-03-02T15:13:22.975Z,15.98
2023-03-02T15:15:50.477Z,15.68
2023-03-02T15:18:19.828Z,17.00
2023-03-02T15:20:47.141Z,16.98
2023-03-02T15:23:14.365Z,16.83
2023-03-02T15:25:43.010Z,16.70
2023-03-02T15:28:10.270Z,17.08
2023-03-02T15:30:37.367Z,15.57
2023-03-02T15:33:04.596Z,17.58
2023-03-02T15:35:31.865Z,17.75
2023-03-02T15:38:02.502Z,18.45
2023-03-02T15:40:29.708Z,14.85
2023-03-02T15:42:56.974Z,17.10
2023-03-02T15:45:24.271Z,14.43
2023-03-02T15:47:51.640Z,15.40
2023-03-02T15:50:18.924Z,15.63
2023-03-02T15:52:46.082Z,15.77
2023-03-02T15:55:15.564Z,16.10
2023-03-02T15:57:42.802Z,16.63
2023-03-02T16:00:13.333Z,16.40
2023-03-02T16:02:41.012Z,22.85
2023-03-02T16:05:08.783Z,16.52
2023-03-02T16:07:37.236Z,22.45
2023-03-02T16:10:04.674Z,21.40
2023-03-02T16:12:31.933Z,16.52
2023-03-02T16:14:59.156Z,18.38
2023-03-02T16:17:26.258Z,16.45
2023-03-02T16:19:53.498Z,21.98
2023-03-02T16:22:20.697Z,15.35
2023-03-02T16:24:49.486Z,22.13
2023-03-02T16:27:16.732Z,14.95
2023-03-02T16:29:46.077Z,21.88
2023-03-02T16:32:13.358Z,22.60
2023-03-02T16:34:40.683Z,16.38
2023-03-02T16:37:07.920Z,16.35
2023-03-02T16:39:35.198Z,16.73
2023-03-02T16:42:02.583Z,17.95
2023-03-02T16:44:29.842Z,19.73
2023-03-02T16:46:57.596Z,18.42
2023-03-02T16:49:24.986Z,19.35
2023-03-02T16:51:56.604Z,18.17
2023-03-02T16:54:23.870Z,18.23
2023-03-02T16:56:51.173Z,20.35
2023-03-02T16:59:18.960Z,19.38
2023-03-02T17:01:46.652Z,19.75
2023-03-02T17:04:14.057Z,21.02
2023-03-02T17:06:59.476Z,22.95
2023-03-02T17:09:28.048Z,21.73
2023-03-02T17:11:55.335Z,25.73
2023-03-02T17:14:22.535Z,30.52
2023-03-02T17:16:49.697Z,31.63
2023-03-02T17:19:16.952Z,29.42
2023-03-02T17:21:47.499Z,31.33
2023-03-02T17:24:15.105Z,31.08
2023-03-02T17:29:25.998Z,33.42
2023-03-02T17:31:53.721Z,32.65
2023-03-02T17:34:21.280Z,30.77
2023-03-02T17:36:54.844Z,32.65
2023-03-02T17:39:23.564Z,29.13
2023-03-02T17:41:56.249Z,31.85
2023-03-02T17:44:24.265Z,28.27
2023-03-02T17:46:51.868Z,33.20
2023-03-02T17:49:22.261Z,48.65
2023-03-02T17:51:53.475Z,29.95
2023-03-02T17:54:28.840Z,31.70
2023-03-02T17:57:12.594Z,36.13
2023-03-02T17:59:47.461Z,34.47
2023-03-02T18:02:27.232Z,34.42
2023-03-02T18:13:28.060Z,30.85
2023-03-02T18:15:57.242Z,30.40
2023-03-02T18:18:32.063Z,32.33
2023-03-02T18:21:14.197Z,29.55
2023-03-02T18:23:57.048Z,30.25
2023-03-02T18:33:21.808Z,30.75
2023-03-02T18:37:16.916Z,30.92
2023-03-02T18:39:03.961Z,48.00
2023-03-02T18:41:42.009Z,28.88
2023-03-02T18:44:45.887Z,33.10
2023-03-02T18:47:35.652Z,30.05
2023-03-02T18:56:46.911Z,30.77
2023-03-02T19:02:08.132Z,23.17
2023-03-02T19:04:48.942Z,24.98
2023-03-02T19:07:30.604Z,24.45
2023-03-02T19:11:00.377Z,21.63
2023-03-02T19:13:17.455Z,24.17
2023-03-02T19:16:11.590Z,21.17
2023-03-02T19:18:47.673Z,23.35
2023-03-02T19:21:30.061Z,22.38
2023-03-02T19:24:03.825Z,22.38
2023-03-02T19:26:35.096Z,22.58
2023-03-02T19:29:21.734Z,21.50
2023-03-02T19:31:52.264Z,22.73
2023-03-02T19:37:15.112Z,22.55
2023-03-02T19:39:49.441Z,23.73
2023-03-02T19:42:20.815Z,23.83
2023-03-02T19:44:55.344Z,25.90
2023-03-02T19:47:38.926Z,40.75
2023-03-02T19:50:15.549Z,25.17
2023-03-02T19:52:45.524Z,28.27
2023-03-02T19:55:32.267Z,47.50
2023-03-02T19:58:12.681Z,29.67
2023-03-02T20:00:53.868Z,29.70
2023-03-02T20:03:48.032Z,27.05
2023-03-02T20:06:35.714Z,26.88
2023-03-02T20:09:15.043Z,24.15
2023-03-02T20:11:54.201Z,23.05
2023-03-02T20:14:36.725Z,23.92
2023-03-02T20:17:06.714Z,22.90
2023-03-02T20:19:38.395Z,22.80
2023-03-02T20:22:37.326Z,23.95
2023-03-02T20:25:15.624Z,22.83
2023-03-02T20:27:53.732Z,23.27
2023-03-02T20:30:41.131Z,22.45
2023-03-02T20:33:11.842Z,20.00
2023-03-02T20:35:44.772Z,34.28
2023-03-02T20:38:32.024Z,23.05
2023-03-02T20:41:18.592Z,21.15
2023-03-02T20:44:31.271Z,22.27
2023-03-02T20:47:15.585Z,21.13
2023-03-02T20:50:02.231Z,22.08
2023-03-02T20:52:55.477Z,31.50
2023-03-02T20:55:50.236Z,20.05
2023-03-02T20:58:23.908Z,16.98
2023-03-02T21:01:07.444Z,18.60
2023-03-02T21:03:51.882Z,16.33
2023-03-02T21:06:20.052Z,17.17
2023-03-02T21:08:49.536Z,17.25
2023-03-02T21:11:43.245Z,15.43
2023-03-02T21:14:30.976Z,15.48
2023-03-02T21:17:06.041Z,15.48
2023-03-02T21:19:41.914Z,15.43
2023-03-02T21:22:10.445Z,15.65
2023-03-02T21:30:30.636Z,15.40
2023-03-02T21:33:09.507Z,14.05
2023-03-02T21:38:35.368Z,12.60
2023-03-02T21:43:58.562Z,14.90
2023-03-02T21:46:26.742Z,13.38
2023-03-02T21:49:00.451Z,13.88
2023-03-02T21:51:28.466Z,13.43
2023-03-02T21:53:56.032Z,14.20
2023-03-02T21:56:30.702Z,16.70
2023-03-02T21:59:20.608Z,15.27
2023-03-02T22:01:53.462Z,17.92
2023-03-02T22:04:35.536Z,17.08
2023-03-02T22:07:03.259Z,16.35
2023-03-02T22:09:35.967Z,16.70
2023-03-02T22:12:08.020Z,20.65
2023-03-02T22:14:35.549Z,24.63
2023-03-02T22:17:04.222Z,27.58
2023-03-02T22:19:35.260Z,27.85
2023-03-02T22:22:17.632Z,28.17
2023-03-02T22:24:50.785Z,40.55
2023-03-02T22:29:51.997Z,28.67
2023-03-02T22:32:30.433Z,28.25
2023-03-02T22:35:03.136Z,25.42
2023-03-02T22:37:36.440Z,24.55
2023-03-02T22:40:25.715Z,39.83
2023-03-02T22:43:08.131Z,22.70
2023-03-02T22:45:38.303Z,23.92
2023-03-02T22:48:15.028Z,24.55
2023-03-02T22:50:59.520Z,22.52
2023-03-02T22:53:38.284Z,21.95
2023-03-02T22:56:25.667Z,22.15
2023-03-02T22:58:57.838Z,20.77
2023-03-02T23:01:29.076Z,21.50
2023-03-02T23:04:24.025Z,18.88
2023-03-02T23:06:58.062Z,19.90
2023-03-02T23:12:50.847Z,22.20
2023-03-02T23:15:46.624Z,21.95
2023-03-02T23:18:40.454Z,23.48
2023-03-02T23:21:33.990Z,20.80
2023-03-02T23:27:07.780Z,22.33
2023-03-02T23:29:39.252Z,25.95
2023-03-02T23:32:07.195Z,24.05
2023-03-02T23:34:37.326Z,21.95
2023-03-02T23:37:04.994Z,24.35
2023-03-02T23:39:32.619Z,23.33
2023-03-02T23:42:00.410Z,25.13
2023-03-02T23:44:28.159Z,21.83
2023-03-02T23:46:55.692Z,23.40
2023-03-02T23:49:23.160Z,21.95
2023-03-02T23:51:50.871Z,21.70
2023-03-02T23:54:18.425Z,22.63
2023-03-02T23:56:45.805Z,23.10
2023-03-02T23:59:13.294Z,22.33
